sensor_id;sensor_type;location;lat;lon;timestamp;temperature;humidity
20487;DHT22;10402;49.012;8.370;2022-09-09T00:01:54;18.60;86.10
20487;DHT22;10402;49.012;8.370;2022-09-09T00:04:31;18.60;86.10
20487;DHT22;10402;49.012;8.370;2022-09-09T00:09:47;18.60;86.10
20487;DHT22;10402;49.012;8.370;2022-09-09T00:12:43;18.60;86.20
20487;DHT22;10402;49.012;8.370;2022-09-09T00:15:13;18.60;86.20
20487;DHT22;10402;49.012;8.370;2022-09-09T00:17:52;18.60;86.20
20487;DHT22;10402;49.012;8.370;2022-09-09T00:23:05;18.60;86.20
20487;DHT22;10402;49.012;8.370;2022-09-09T00:25:49;18.60;86.30
20487;DHT22;10402;49.012;8.370;2022-09-09T00:28:23;18.60;86.40
20487;DHT22;10402;49.012;8.370;2022-09-09T00:30:50;18.60;86.40
20487;DHT22;10402;49.012;8.370;2022-09-09T00:33:18;18.50;86.50
20487;DHT22;10402;49.012;8.370;2022-09-09T00:35:55;18.50;86.50
20487;DHT22;10402;49.012;8.370;2022-09-09T00:41:14;18.50;86.80
20487;DHT22;10402;49.012;8.370;2022-09-09T00:43:50;18.50;87.00
20487;DHT22;10402;49.012;8.370;2022-09-09T00:49:04;18.40;87.40
20487;DHT22;10402;49.012;8.370;2022-09-09T00:52:06;18.40;87.40
20487;DHT22;10402;49.012;8.370;2022-09-09T00:55:02;18.50;87.50
20487;DHT22;10402;49.012;8.370;2022-09-09T00:57:31;18.50;87.50
20487;DHT22;10402;49.012;8.370;2022-09-09T01:00:24;18.50;87.60
20487;DHT22;10402;49.012;8.370;2022-09-09T01:10:52;18.50;87.50
20487;DHT22;10402;49.012;8.370;2022-09-09T01:13:35;18.50;87.50
20487;DHT22;10402;49.012;8.370;2022-09-09T01:16:04;18.50;87.50
20487;DHT22;10402;49.012;8.370;2022-09-09T01:18:34;18.50;87.60
20487;DHT22;10402;49.012;8.370;2022-09-09T01:21:24;18.50;87.60
20487;DHT22;10402;49.012;8.370;2022-09-09T01:26:44;18.50;87.60
20487;DHT22;10402;49.012;8.370;2022-09-09T01:29:12;18.50;87.40
20487;DHT22;10402;49.012;8.370;2022-09-09T01:31:42;18.50;87.20
20487;DHT22;10402;49.012;8.370;2022-09-09T01:34:15;18.60;87.10
20487;DHT22;10402;49.012;8.370;2022-09-09T01:39:26;18.60;86.80
20487;DHT22;10402;49.012;8.370;2022-09-09T01:41:53;18.50;86.70
20487;DHT22;10402;49.012;8.370;2022-09-09T01:44:20;18.50;86.90
20487;DHT22;10402;49.012;8.370;2022-09-09T01:46:46;18.40;87.30
20487;DHT22;10402;49.012;8.370;2022-09-09T01:49:12;18.40;87.70
20487;DHT22;10402;49.012;8.370;2022-09-09T01:51:39;18.30;87.90
20487;DHT22;10402;49.012;8.370;2022-09-09T01:54:06;18.30;88.10
20487;DHT22;10402;49.012;8.370;2022-09-09T02:02:32;18.10;89.00
20487;DHT22;10402;49.012;8.370;2022-09-09T02:05:17;18.00;89.10
20487;DHT22;10402;49.012;8.370;2022-09-09T02:08:00;17.90;89.30
20487;DHT22;10402;49.012;8.370;2022-09-09T02:10:46;17.80;89.50
20487;DHT22;10402;49.012;8.370;2022-09-09T02:13:18;17.80;89.80
20487;DHT22;10402;49.012;8.370;2022-09-09T02:15:52;17.70;90.00
20487;DHT22;10402;49.012;8.370;2022-09-09T02:18:24;17.60;90.10
20487;DHT22;10402;49.012;8.370;2022-09-09T02:20:52;17.60;90.10
20487;DHT22;10402;49.012;8.370;2022-09-09T02:23:19;17.60;90.20
20487;DHT22;10402;49.012;8.370;2022-09-09T02:25:46;17.50;90.20
20487;DHT22;10402;49.012;8.370;2022-09-09T02:28:14;17.50;90.20
20487;DHT22;10402;49.012;8.370;2022-09-09T02:30:42;17.50;90.30
20487;DHT22;10402;49.012;8.370;2022-09-09T02:33:14;17.50;90.30
20487;DHT22;10402;49.012;8.370;2022-09-09T02:35:40;17.50;90.40
20487;DHT22;10402;49.012;8.370;2022-09-09T02:38:11;17.50;90.40
20487;DHT22;10402;49.012;8.370;2022-09-09T02:40:38;17.50;90.30
20487;DHT22;10402;49.012;8.370;2022-09-09T02:43:03;17.50;90.40
20487;DHT22;10402;49.012;8.370;2022-09-09T02:45:41;17.50;90.50
20487;DHT22;10402;49.012;8.370;2022-09-09T02:48:20;17.50;90.50
20487;DHT22;10402;49.012;8.370;2022-09-09T02:50:56;17.50;90.60
20487;DHT22;10402;49.012;8.370;2022-09-09T02:53:57;17.50;90.50
20487;DHT22;10402;49.012;8.370;2022-09-09T02:56:27;17.50;90.50
20487;DHT22;10402;49.012;8.370;2022-09-09T02:58:56;17.50;90.60
20487;DHT22;10402;49.012;8.370;2022-09-09T03:01:21;17.40;90.60
20487;DHT22;10402;49.012;8.370;2022-09-09T03:03:47;17.50;90.60
20487;DHT22;10402;49.012;8.370;2022-09-09T03:06:13;17.50;90.80
20487;DHT22;10402;49.012;8.370;2022-09-09T03:08:39;17.50;90.80
20487;DHT22;10402;49.012;8.370;2022-09-09T03:11:05;17.40;90.80
20487;DHT22;10402;49.012;8.370;2022-09-09T03:13:31;17.40;90.80
20487;DHT22;10402;49.012;8.370;2022-09-09T03:15:56;17.50;90.80
20487;DHT22;10402;49.012;8.370;2022-09-09T03:18:22;17.50;90.90
20487;DHT22;10402;49.012;8.370;2022-09-09T03:20:48;17.50;90.80
20487;DHT22;10402;49.012;8.370;2022-09-09T03:23:14;17.50;90.80
20487;DHT22;10402;49.012;8.370;2022-09-09T03:25:46;17.40;90.80
20487;DHT22;10402;49.012;8.370;2022-09-09T03:28:13;17.50;90.90
20487;DHT22;10402;49.012;8.370;2022-09-09T03:30:38;17.40;90.90
20487;DHT22;10402;49.012;8.370;2022-09-09T03:33:04;17.40;90.90
20487;DHT22;10402;49.012;8.370;2022-09-09T03:35:29;17.40;91.00
20487;DHT22;10402;49.012;8.370;2022-09-09T03:37:55;17.40;91.10
20487;DHT22;10402;49.012;8.370;2022-09-09T03:40:21;17.40;91.10
20487;DHT22;10402;49.012;8.370;2022-09-09T03:42:46;17.40;91.10
20487;DHT22;10402;49.012;8.370;2022-09-09T03:45:13;17.40;91.10
20487;DHT22;10402;49.012;8.370;2022-09-09T03:47:38;17.40;91.20
20487;DHT22;10402;49.012;8.370;2022-09-09T03:50:05;17.40;91.20
20487;DHT22;10402;49.012;8.370;2022-09-09T03:52:38;17.40;91.20
20487;DHT22;10402;49.012;8.370;2022-09-09T03:55:05;17.40;91.20
20487;DHT22;10402;49.012;8.370;2022-09-09T03:57:31;17.40;91.20
20487;DHT22;10402;49.012;8.370;2022-09-09T03:59:57;17.40;91.20
20487;DHT22;10402;49.012;8.370;2022-09-09T04:02:23;17.40;91.20
20487;DHT22;10402;49.012;8.370;2022-09-09T04:04:49;17.40;91.20
20487;DHT22;10402;49.012;8.370;2022-09-09T04:07:14;17.40;91.20
20487;DHT22;10402;49.012;8.370;2022-09-09T04:09:40;17.40;91.20
20487;DHT22;10402;49.012;8.370;2022-09-09T04:12:05;17.40;91.20
20487;DHT22;10402;49.012;8.370;2022-09-09T04:14:32;17.40;91.20
20487;DHT22;10402;49.012;8.370;2022-09-09T04:16:57;17.40;91.30
20487;DHT22;10402;49.012;8.370;2022-09-09T04:19:24;17.40;91.30
20487;DHT22;10402;49.012;8.370;2022-09-09T04:21:50;17.40;91.20
20487;DHT22;10402;49.012;8.370;2022-09-09T04:24:17;17.40;91.20
20487;DHT22;10402;49.012;8.370;2022-09-09T04:26:43;17.50;91.20
20487;DHT22;10402;49.012;8.370;2022-09-09T04:29:08;17.50;91.30
20487;DHT22;10402;49.012;8.370;2022-09-09T04:31:40;17.50;91.20
20487;DHT22;10402;49.012;8.370;2022-09-09T04:34:08;17.50;91.20
20487;DHT22;10402;49.012;8.370;2022-09-09T04:36:34;17.40;91.20
20487;DHT22;10402;49.012;8.370;2022-09-09T04:38:59;17.40;91.20
20487;DHT22;10402;49.012;8.370;2022-09-09T04:41:26;17.40;91.20
20487;DHT22;10402;49.012;8.370;2022-09-09T04:43:52;17.50;91.20
20487;DHT22;10402;49.012;8.370;2022-09-09T04:46:19;17.50;91.20
20487;DHT22;10402;49.012;8.370;2022-09-09T04:48:45;17.50;91.20
20487;DHT22;10402;49.012;8.370;2022-09-09T04:51:13;17.50;91.20
20487;DHT22;10402;49.012;8.370;2022-09-09T04:53:39;17.50;91.20
20487;DHT22;10402;49.012;8.370;2022-09-09T04:56:14;17.50;91.30
20487;DHT22;10402;49.012;8.370;2022-09-09T04:58:40;17.60;91.30
20487;DHT22;10402;49.012;8.370;2022-09-09T05:03:39;17.60;91.20
20487;DHT22;10402;49.012;8.370;2022-09-09T05:06:10;17.60;91.20
20487;DHT22;10402;49.012;8.370;2022-09-09T05:08:37;17.60;91.20
20487;DHT22;10402;49.012;8.370;2022-09-09T05:11:04;17.60;91.20
20487;DHT22;10402;49.012;8.370;2022-09-09T05:13:30;17.70;91.20
20487;DHT22;10402;49.012;8.370;2022-09-09T05:15:57;17.70;91.20
20487;DHT22;10402;49.012;8.370;2022-09-09T05:18:22;17.70;91.20
20487;DHT22;10402;49.012;8.370;2022-09-09T05:20:49;17.70;91.10
20487;DHT22;10402;49.012;8.370;2022-09-09T05:23:14;17.70;91.00
20487;DHT22;10402;49.012;8.370;2022-09-09T05:25:40;17.70;91.00
20487;DHT22;10402;49.012;8.370;2022-09-09T05:28:06;17.70;91.00
20487;DHT22;10402;49.012;8.370;2022-09-09T05:30:33;17.70;91.00
20487;DHT22;10402;49.012;8.370;2022-09-09T05:32:59;17.70;90.90
20487;DHT22;10402;49.012;8.370;2022-09-09T05:35:25;17.80;90.90
20487;DHT22;10402;49.012;8.370;2022-09-09T05:37:50;17.80;90.90
20487;DHT22;10402;49.012;8.370;2022-09-09T05:40:16;17.80;90.80
20487;DHT22;10402;49.012;8.370;2022-09-09T05:42:41;17.80;90.80
20487;DHT22;10402;49.012;8.370;2022-09-09T05:45:08;17.80;90.80
20487;DHT22;10402;49.012;8.370;2022-09-09T05:47:35;17.80;90.70
20487;DHT22;10402;49.012;8.370;2022-09-09T05:50:01;17.80;90.70
20487;DHT22;10402;49.012;8.370;2022-09-09T05:52:26;17.70;90.60
20487;DHT22;10402;49.012;8.370;2022-09-09T05:54:52;17.70;90.70
20487;DHT22;10402;49.012;8.370;2022-09-09T05:57:19;17.70;90.60
20487;DHT22;10402;49.012;8.370;2022-09-09T05:59:45;17.80;90.70
20487;DHT22;10402;49.012;8.370;2022-09-09T06:02:11;17.80;90.50
20487;DHT22;10402;49.012;8.370;2022-09-09T06:04:37;17.80;90.50
20487;DHT22;10402;49.012;8.370;2022-09-09T06:07:05;17.90;90.50
20487;DHT22;10402;49.012;8.370;2022-09-09T06:09:31;18.00;90.40
20487;DHT22;10402;49.012;8.370;2022-09-09T06:11:56;18.00;90.30
20487;DHT22;10402;49.012;8.370;2022-09-09T06:14:23;18.00;90.20
20487;DHT22;10402;49.012;8.370;2022-09-09T06:16:50;18.00;90.20
20487;DHT22;10402;49.012;8.370;2022-09-09T06:19:16;18.10;90.40
20487;DHT22;10402;49.012;8.370;2022-09-09T06:21:42;18.10;90.20
20487;DHT22;10402;49.012;8.370;2022-09-09T06:24:09;18.10;90.20
20487;DHT22;10402;49.012;8.370;2022-09-09T06:26:37;18.10;90.10
20487;DHT22;10402;49.012;8.370;2022-09-09T06:29:06;18.10;90.10
20487;DHT22;10402;49.012;8.370;2022-09-09T06:31:34;18.20;90.10
20487;DHT22;10402;49.012;8.370;2022-09-09T06:34:01;18.20;90.10
20487;DHT22;10402;49.012;8.370;2022-09-09T06:36:29;18.30;90.10
20487;DHT22;10402;49.012;8.370;2022-09-09T06:38:55;18.30;90.30
20487;DHT22;10402;49.012;8.370;2022-09-09T06:41:22;18.30;90.00
20487;DHT22;10402;49.012;8.370;2022-09-09T06:43:48;18.40;90.00
20487;DHT22;10402;49.012;8.370;2022-09-09T06:46:28;18.40;90.00
20487;DHT22;10402;49.012;8.370;2022-09-09T06:48:55;18.40;89.70
20487;DHT22;10402;49.012;8.370;2022-09-09T06:51:30;18.50;89.70
20487;DHT22;10402;49.012;8.370;2022-09-09T06:53:58;18.50;90.00
20487;DHT22;10402;49.012;8.370;2022-09-09T06:56:29;18.50;89.50
20487;DHT22;10402;49.012;8.370;2022-09-09T06:58:57;18.60;89.50
20487;DHT22;10402;49.012;8.370;2022-09-09T07:01:41;18.60;89.40
20487;DHT22;10402;49.012;8.370;2022-09-09T07:04:07;18.60;89.50
20487;DHT22;10402;49.012;8.370;2022-09-09T07:06:36;18.60;89.50
20487;DHT22;10402;49.012;8.370;2022-09-09T07:09:08;18.60;89.40
20487;DHT22;10402;49.012;8.370;2022-09-09T07:11:47;18.70;89.40
20487;DHT22;10402;49.012;8.370;2022-09-09T07:14:14;18.70;89.20
20487;DHT22;10402;49.012;8.370;2022-09-09T07:16:44;18.70;89.10
20487;DHT22;10402;49.012;8.370;2022-09-09T07:19:10;18.80;89.00
20487;DHT22;10402;49.012;8.370;2022-09-09T07:21:36;18.80;88.90
20487;DHT22;10402;49.012;8.370;2022-09-09T07:24:02;18.80;88.80
20487;DHT22;10402;49.012;8.370;2022-09-09T07:26:29;18.90;88.80
20487;DHT22;10402;49.012;8.370;2022-09-09T07:28:55;18.90;88.80
20487;DHT22;10402;49.012;8.370;2022-09-09T07:31:30;18.90;88.70
20487;DHT22;10402;49.012;8.370;2022-09-09T07:33:56;18.90;88.80
20487;DHT22;10402;49.012;8.370;2022-09-09T07:36:28;18.90;89.00
20487;DHT22;10402;49.012;8.370;2022-09-09T07:38:56;18.80;89.20
20487;DHT22;10402;49.012;8.370;2022-09-09T07:41:25;18.80;89.10
20487;DHT22;10402;49.012;8.370;2022-09-09T07:43:52;18.80;89.00
20487;DHT22;10402;49.012;8.370;2022-09-09T07:46:20;18.90;89.20
20487;DHT22;10402;49.012;8.370;2022-09-09T07:48:52;18.90;89.20
20487;DHT22;10402;49.012;8.370;2022-09-09T07:51:23;18.90;89.00
20487;DHT22;10402;49.012;8.370;2022-09-09T07:53:54;19.00;88.90
20487;DHT22;10402;49.012;8.370;2022-09-09T07:56:20;19.00;88.90
20487;DHT22;10402;49.012;8.370;2022-09-09T07:58:49;19.10;89.00
20487;DHT22;10402;49.012;8.370;2022-09-09T08:01:23;19.10;88.80
20487;DHT22;10402;49.012;8.370;2022-09-09T08:03:58;19.10;88.70
20487;DHT22;10402;49.012;8.370;2022-09-09T08:06:32;19.20;88.60
20487;DHT22;10402;49.012;8.370;2022-09-09T08:08:58;19.30;88.40
20487;DHT22;10402;49.012;8.370;2022-09-09T08:11:26;19.30;88.20
20487;DHT22;10402;49.012;8.370;2022-09-09T08:13:52;19.40;88.10
20487;DHT22;10402;49.012;8.370;2022-09-09T08:16:20;19.40;88.00
20487;DHT22;10402;49.012;8.370;2022-09-09T08:18:50;19.50;88.10
20487;DHT22;10402;49.012;8.370;2022-09-09T08:21:22;19.50;87.90
20487;DHT22;10402;49.012;8.370;2022-09-09T08:23:51;19.60;87.90
20487;DHT22;10402;49.012;8.370;2022-09-09T08:26:20;19.60;87.60
20487;DHT22;10402;49.012;8.370;2022-09-09T08:28:48;19.70;87.50
20487;DHT22;10402;49.012;8.370;2022-09-09T08:31:20;19.60;87.40
20487;DHT22;10402;49.012;8.370;2022-09-09T08:33:47;19.60;87.60
20487;DHT22;10402;49.012;8.370;2022-09-09T08:36:15;19.60;87.70
20487;DHT22;10402;49.012;8.370;2022-09-09T08:38:46;19.50;87.70
20487;DHT22;10402;49.012;8.370;2022-09-09T08:49:39;19.70;87.80
20487;DHT22;10402;49.012;8.370;2022-09-09T08:52:18;19.70;87.70
20487;DHT22;10402;49.012;8.370;2022-09-09T08:54:45;19.80;87.70
20487;DHT22;10402;49.012;8.370;2022-09-09T08:57:17;19.80;87.50
20487;DHT22;10402;49.012;8.370;2022-09-09T08:59:45;19.90;87.50
20487;DHT22;10402;49.012;8.370;2022-09-09T09:05:13;19.80;87.60
20487;DHT22;10402;49.012;8.370;2022-09-09T09:08:03;19.70;87.70
20487;DHT22;10402;49.012;8.370;2022-09-09T09:10:53;19.70;88.10
20487;DHT22;10402;49.012;8.370;2022-09-09T09:15:58;19.60;88.20
20487;DHT22;10402;49.012;8.370;2022-09-09T09:18:24;19.60;88.30
20487;DHT22;10402;49.012;8.370;2022-09-09T09:21:21;19.60;88.60
20487;DHT22;10402;49.012;8.370;2022-09-09T09:23:56;19.60;88.70
20487;DHT22;10402;49.012;8.370;2022-09-09T09:26:24;19.60;88.60
20487;DHT22;10402;49.012;8.370;2022-09-09T09:28:54;19.70;88.40
20487;DHT22;10402;49.012;8.370;2022-09-09T09:31:21;19.80;88.10
20487;DHT22;10402;49.012;8.370;2022-09-09T09:36:19;20.00;87.10
20487;DHT22;10402;49.012;8.370;2022-09-09T09:38:57;20.10;86.80
20487;DHT22;10402;49.012;8.370;2022-09-09T09:44:03;20.20;85.80
20487;DHT22;10402;49.012;8.370;2022-09-09T09:46:31;20.30;85.50
20487;DHT22;10402;49.012;8.370;2022-09-09T09:48:59;20.30;85.10
20487;DHT22;10402;49.012;8.370;2022-09-09T09:51:26;20.40;84.70
20487;DHT22;10402;49.012;8.370;2022-09-09T09:53:51;20.40;84.50
20487;DHT22;10402;49.012;8.370;2022-09-09T09:56:26;20.50;84.00
20487;DHT22;10402;49.012;8.370;2022-09-09T09:58:54;20.50;83.90
20487;DHT22;10402;49.012;8.370;2022-09-09T10:01:38;20.60;83.60
20487;DHT22;10402;49.012;8.370;2022-09-09T10:04:19;20.60;83.40
20487;DHT22;10402;49.012;8.370;2022-09-09T10:06:46;20.60;83.20
20487;DHT22;10402;49.012;8.370;2022-09-09T10:12:11;20.60;83.00
20487;DHT22;10402;49.012;8.370;2022-09-09T10:23:26;20.80;81.90
20487;DHT22;10402;49.012;8.370;2022-09-09T10:28:38;20.80;82.40
20487;DHT22;10402;49.012;8.370;2022-09-09T10:31:19;20.70;81.40
20487;DHT22;10402;49.012;8.370;2022-09-09T10:34:09;20.70;81.30
20487;DHT22;10402;49.012;8.370;2022-09-09T10:36:44;20.80;81.30
20487;DHT22;10402;49.012;8.370;2022-09-09T10:39:36;20.80;81.20
20487;DHT22;10402;49.012;8.370;2022-09-09T10:42:12;20.90;80.90
20487;DHT22;10402;49.012;8.370;2022-09-09T10:55:20;21.20;79.00
20487;DHT22;10402;49.012;8.370;2022-09-09T10:57:52;21.20;78.70
20487;DHT22;10402;49.012;8.370;2022-09-09T11:00:24;21.20;77.70
20487;DHT22;10402;49.012;8.370;2022-09-09T11:02:59;21.20;77.80
20487;DHT22;10402;49.012;8.370;2022-09-09T11:05:30;21.20;77.80
20487;DHT22;10402;49.012;8.370;2022-09-09T11:08:11;21.20;77.60
20487;DHT22;10402;49.012;8.370;2022-09-09T11:13:14;21.20;76.90
20487;DHT22;10402;49.012;8.370;2022-09-09T11:15:48;21.30;77.00
20487;DHT22;10402;49.012;8.370;2022-09-09T11:18:21;21.30;76.80
20487;DHT22;10402;49.012;8.370;2022-09-09T11:20:51;21.40;76.50
20487;DHT22;10402;49.012;8.370;2022-09-09T11:23:30;21.40;76.30
20487;DHT22;10402;49.012;8.370;2022-09-09T11:26:00;21.40;75.80
20487;DHT22;10402;49.012;8.370;2022-09-09T11:31:46;21.50;75.50
20487;DHT22;10402;49.012;8.370;2022-09-09T11:34:56;21.60;75.10
20487;DHT22;10402;49.012;8.370;2022-09-09T11:40:27;21.80;74.00
20487;DHT22;10402;49.012;8.370;2022-09-09T11:43:15;21.80;73.50
20487;DHT22;10402;49.012;8.370;2022-09-09T11:45:43;22.00;73.70
20487;DHT22;10402;49.012;8.370;2022-09-09T11:48:35;22.00;73.30
20487;DHT22;10402;49.012;8.370;2022-09-09T11:51:10;22.10;73.40
20487;DHT22;10402;49.012;8.370;2022-09-09T11:53:51;22.00;73.30
20487;DHT22;10402;49.012;8.370;2022-09-09T11:59:06;22.00;73.50
20487;DHT22;10402;49.012;8.370;2022-09-09T12:01:44;22.00;73.30
20487;DHT22;10402;49.012;8.370;2022-09-09T12:04:14;22.00;73.30
20487;DHT22;10402;49.012;8.370;2022-09-09T12:06:44;22.10;73.30
20487;DHT22;10402;49.012;8.370;2022-09-09T12:17:27;22.00;72.90
20487;DHT22;10402;49.012;8.370;2022-09-09T12:20:16;22.00;73.00
20487;DHT22;10402;49.012;8.370;2022-09-09T12:28:17;21.90;73.10
20487;DHT22;10402;49.012;8.370;2022-09-09T12:31:10;21.80;72.80
20487;DHT22;10402;49.012;8.370;2022-09-09T12:33:38;21.80;72.60
20487;DHT22;10402;49.012;8.370;2022-09-09T12:36:12;21.80;72.20
20487;DHT22;10402;49.012;8.370;2022-09-09T12:38:41;21.80;72.30
20487;DHT22;10402;49.012;8.370;2022-09-09T12:41:21;21.80;72.50
20487;DHT22;10402;49.012;8.370;2022-09-09T12:43:48;21.70;72.70
20487;DHT22;10402;49.012;8.370;2022-09-09T12:46:30;21.70;73.00
20487;DHT22;10402;49.012;8.370;2022-09-09T12:48:58;21.60;73.30
20487;DHT22;10402;49.012;8.370;2022-09-09T12:51:28;21.60;73.40
20487;DHT22;10402;49.012;8.370;2022-09-09T12:53:55;21.70;73.50
20487;DHT22;10402;49.012;8.370;2022-09-09T12:56:23;21.80;73.50
20487;DHT22;10402;49.012;8.370;2022-09-09T12:58:52;21.90;73.20
20487;DHT22;10402;49.012;8.370;2022-09-09T13:01:28;21.90;72.80
20487;DHT22;10402;49.012;8.370;2022-09-09T13:03:55;21.80;72.30
20487;DHT22;10402;49.012;8.370;2022-09-09T13:06:25;21.80;72.50
20487;DHT22;10402;49.012;8.370;2022-09-09T13:08:52;21.70;73.00
20487;DHT22;10402;49.012;8.370;2022-09-09T13:11:30;21.60;73.40
20487;DHT22;10402;49.012;8.370;2022-09-09T13:14:00;21.60;73.90
20487;DHT22;10402;49.012;8.370;2022-09-09T13:16:29;21.60;74.20
20487;DHT22;10402;49.012;8.370;2022-09-09T13:19:01;21.50;74.20
20487;DHT22;10402;49.012;8.370;2022-09-09T13:21:35;21.40;74.10
20487;DHT22;10402;49.012;8.370;2022-09-09T13:24:01;21.30;74.80
20487;DHT22;10402;49.012;8.370;2022-09-09T13:26:29;21.20;74.70
20487;DHT22;10402;49.012;8.370;2022-09-09T13:29:06;21.20;75.00
20487;DHT22;10402;49.012;8.370;2022-09-09T13:31:35;21.20;75.00
20487;DHT22;10402;49.012;8.370;2022-09-09T13:34:22;21.20;75.10
20487;DHT22;10402;49.012;8.370;2022-09-09T13:36:54;21.20;75.00
20487;DHT22;10402;49.012;8.370;2022-09-09T13:39:20;21.30;75.00
20487;DHT22;10402;49.012;8.370;2022-09-09T13:41:46;21.30;74.70
20487;DHT22;10402;49.012;8.370;2022-09-09T13:44:40;21.40;74.60
20487;DHT22;10402;49.012;8.370;2022-09-09T13:47:36;21.40;74.40
20487;DHT22;10402;49.012;8.370;2022-09-09T13:52:49;21.30;74.30
20487;DHT22;10402;49.012;8.370;2022-09-09T13:55:17;21.30;74.30
20487;DHT22;10402;49.012;8.370;2022-09-09T13:57:57;21.30;74.40
20487;DHT22;10402;49.012;8.370;2022-09-09T14:00:24;21.40;74.50
20487;DHT22;10402;49.012;8.370;2022-09-09T14:02:50;21.30;74.40
20487;DHT22;10402;49.012;8.370;2022-09-09T14:05:17;21.30;74.50
20487;DHT22;10402;49.012;8.370;2022-09-09T14:07:43;21.20;74.70
20487;DHT22;10402;49.012;8.370;2022-09-09T14:10:09;21.10;75.10
20487;DHT22;10402;49.012;8.370;2022-09-09T14:12:35;20.90;75.70
20487;DHT22;10402;49.012;8.370;2022-09-09T14:15:05;20.70;77.00
20487;DHT22;10402;49.012;8.370;2022-09-09T14:17:30;20.50;78.20
20487;DHT22;10402;49.012;8.370;2022-09-09T14:19:57;20.20;79.30
20487;DHT22;10402;49.012;8.370;2022-09-09T14:22:23;19.90;80.10
20487;DHT22;10402;49.012;8.370;2022-09-09T14:24:49;19.70;81.90
20487;DHT22;10402;49.012;8.370;2022-09-09T14:27:15;19.40;82.50
20487;DHT22;10402;49.012;8.370;2022-09-09T14:29:41;19.20;83.40
20487;DHT22;10402;49.012;8.370;2022-09-09T14:32:07;19.10;83.90
20487;DHT22;10402;49.012;8.370;2022-09-09T14:34:32;18.90;84.60
20487;DHT22;10402;49.012;8.370;2022-09-09T14:36:58;18.90;85.40
20487;DHT22;10402;49.012;8.370;2022-09-09T14:39:24;18.80;85.80
20487;DHT22;10402;49.012;8.370;2022-09-09T14:41:50;18.80;86.30
20487;DHT22;10402;49.012;8.370;2022-09-09T14:44:15;18.90;86.90
20487;DHT22;10402;49.012;8.370;2022-09-09T14:46:41;18.80;87.00
20487;DHT22;10402;49.012;8.370;2022-09-09T14:49:08;18.80;87.30
20487;DHT22;10402;49.012;8.370;2022-09-09T14:51:35;18.80;87.80
20487;DHT22;10402;49.012;8.370;2022-09-09T14:54:01;18.90;88.50
20487;DHT22;10402;49.012;8.370;2022-09-09T14:56:29;18.80;88.50
20487;DHT22;10402;49.012;8.370;2022-09-09T14:58:58;18.80;88.70
20487;DHT22;10402;49.012;8.370;2022-09-09T15:01:26;18.70;88.80
20487;DHT22;10402;49.012;8.370;2022-09-09T15:03:57;18.70;89.30
20487;DHT22;10402;49.012;8.370;2022-09-09T15:06:25;18.70;89.50
20487;DHT22;10402;49.012;8.370;2022-09-09T15:08:52;18.70;89.70
20487;DHT22;10402;49.012;8.370;2022-09-09T15:11:18;18.70;90.00
20487;DHT22;10402;49.012;8.370;2022-09-09T15:13:45;18.80;90.00
20487;DHT22;10402;49.012;8.370;2022-09-09T15:16:16;18.80;90.00
20487;DHT22;10402;49.012;8.370;2022-09-09T15:18:46;18.90;90.10
20487;DHT22;10402;49.012;8.370;2022-09-09T15:21:17;19.00;90.20
20487;DHT22;10402;49.012;8.370;2022-09-09T15:23:44;18.90;90.20
20487;DHT22;10402;49.012;8.370;2022-09-09T15:26:11;18.90;90.40
20487;DHT22;10402;49.012;8.370;2022-09-09T15:28:40;19.00;90.50
20487;DHT22;10402;49.012;8.370;2022-09-09T15:31:18;19.10;90.60
20487;DHT22;10402;49.012;8.370;2022-09-09T15:36:25;19.30;90.70
20487;DHT22;10402;49.012;8.370;2022-09-09T15:38:52;19.30;90.70
20487;DHT22;10402;49.012;8.370;2022-09-09T15:41:20;19.40;90.70
20487;DHT22;10402;49.012;8.370;2022-09-09T15:43:48;19.40;90.80
20487;DHT22;10402;49.012;8.370;2022-09-09T15:49:20;19.50;91.00
20487;DHT22;10402;49.012;8.370;2022-09-09T15:51:57;19.40;91.00
20487;DHT22;10402;49.012;8.370;2022-09-09T15:54:25;19.40;91.00
20487;DHT22;10402;49.012;8.370;2022-09-09T15:56:56;19.30;91.10
20487;DHT22;10402;49.012;8.370;2022-09-09T15:59:23;19.30;91.30
20487;DHT22;10402;49.012;8.370;2022-09-09T16:01:50;19.20;91.30
20487;DHT22;10402;49.012;8.370;2022-09-09T16:04:19;19.20;91.70
20487;DHT22;10402;49.012;8.370;2022-09-09T16:06:56;19.10;91.40
20487;DHT22;10402;49.012;8.370;2022-09-09T16:09:24;19.00;91.40
20487;DHT22;10402;49.012;8.370;2022-09-09T16:11:50;18.90;91.30
20487;DHT22;10402;49.012;8.370;2022-09-09T16:14:17;18.80;91.40
20487;DHT22;10402;49.012;8.370;2022-09-09T16:16:43;18.80;91.50
20487;DHT22;10402;49.012;8.370;2022-09-09T16:19:11;18.70;91.30
20487;DHT22;10402;49.012;8.370;2022-09-09T16:21:40;18.60;91.30
20487;DHT22;10402;49.012;8.370;2022-09-09T16:24:08;18.60;91.50
20487;DHT22;10402;49.012;8.370;2022-09-09T16:26:36;18.60;91.40
20487;DHT22;10402;49.012;8.370;2022-09-09T16:29:03;18.60;91.50
20487;DHT22;10402;49.012;8.370;2022-09-09T16:31:30;18.60;91.50
20487;DHT22;10402;49.012;8.370;2022-09-09T16:33:57;18.60;91.50
20487;DHT22;10402;49.012;8.370;2022-09-09T16:36:27;18.50;91.50
20487;DHT22;10402;49.012;8.370;2022-09-09T16:38:59;18.50;91.50
20487;DHT22;10402;49.012;8.370;2022-09-09T16:41:26;18.50;91.70
20487;DHT22;10402;49.012;8.370;2022-09-09T16:44:00;18.50;91.60
20487;DHT22;10402;49.012;8.370;2022-09-09T16:46:28;18.40;91.60
20487;DHT22;10402;49.012;8.370;2022-09-09T16:48:56;18.40;91.60
20487;DHT22;10402;49.012;8.370;2022-09-09T16:51:32;18.40;91.70
20487;DHT22;10402;49.012;8.370;2022-09-09T16:53:59;18.40;91.70
20487;DHT22;10402;49.012;8.370;2022-09-09T16:56:27;18.40;91.70
20487;DHT22;10402;49.012;8.370;2022-09-09T16:58:55;18.40;91.70
20487;DHT22;10402;49.012;8.370;2022-09-09T17:01:25;18.40;91.70
20487;DHT22;10402;49.012;8.370;2022-09-09T17:03:59;18.40;91.70
20487;DHT22;10402;49.012;8.370;2022-09-09T17:06:27;18.50;91.70
20487;DHT22;10402;49.012;8.370;2022-09-09T17:08:57;18.50;91.70
20487;DHT22;10402;49.012;8.370;2022-09-09T17:11:23;18.50;91.70
20487;DHT22;10402;49.012;8.370;2022-09-09T17:13:49;18.50;91.60
20487;DHT22;10402;49.012;8.370;2022-09-09T17:16:17;18.50;91.50
20487;DHT22;10402;49.012;8.370;2022-09-09T17:18:43;18.50;91.50
20487;DHT22;10402;49.012;8.370;2022-09-09T17:21:13;18.50;91.50
20487;DHT22;10402;49.012;8.370;2022-09-09T17:23:40;18.50;91.60
20487;DHT22;10402;49.012;8.370;2022-09-09T17:26:08;18.40;91.60
20487;DHT22;10402;49.012;8.370;2022-09-09T17:28:38;18.40;91.50
20487;DHT22;10402;49.012;8.370;2022-09-09T17:31:04;18.30;91.50
20487;DHT22;10402;49.012;8.370;2022-09-09T17:33:33;18.30;91.50
20487;DHT22;10402;49.012;8.370;2022-09-09T17:36:02;18.30;91.60
20487;DHT22;10402;49.012;8.370;2022-09-09T17:38:28;18.30;91.60
20487;DHT22;10402;49.012;8.370;2022-09-09T17:41:05;18.30;91.60